sensor_id;sensor_type;location;lat;lon;timestamp;temperature;humidity
52044;DHT22;38053;53.100;6.078;2024-03-23T01:11:40;5.10;99.90
52044;DHT22;38053;53.100;6.078;2024-03-23T01:14:06;5.10;99.90
52044;DHT22;38053;53.100;6.078;2024-03-23T01:16:32;5.10;99.90
52044;DHT22;38053;53.100;6.078;2024-03-23T01:19:04;5.00;99.90
52044;DHT22;38053;53.100;6.078;2024-03-23T01:21:29;5.00;99.90
52044;DHT22;38053;53.100;6.078;2024-03-23T01:23:55;5.00;99.90
52044;DHT22;38053;53.100;6.078;2024-03-23T01:26:21;5.00;99.90
52044;DHT22;38053;53.100;6.078;2024-03-23T01:28:47;4.90;99.90
52044;DHT22;38053;53.100;6.078;2024-03-23T01:31:13;4.90;99.90
52044;DHT22;38053;53.100;6.078;2024-03-23T01:33:39;4.90;99.90
52044;DHT22;38053;53.100;6.078;2024-03-23T01:36:04;4.90;99.90
52044;DHT22;38053;53.100;6.078;2024-03-23T01:38:33;4.90;99.90
52044;DHT22;38053;53.100;6.078;2024-03-23T01:40:59;4.80;99.90
52044;DHT22;38053;53.100;6.078;2024-03-23T01:43:25;4.70;99.90
52044;DHT22;38053;53.100;6.078;2024-03-23T01:45:51;4.70;99.90
52044;DHT22;38053;53.100;6.078;2024-03-23T01:48:20;4.70;99.90
52044;DHT22;38053;53.100;6.078;2024-03-23T01:50:46;4.70;99.90
52044;DHT22;38053;53.100;6.078;2024-03-23T01:53:12;4.60;99.90
52044;DHT22;38053;53.100;6.078;2024-03-23T01:55:40;4.60;99.90
52044;DHT22;38053;53.100;6.078;2024-03-23T01:58:06;4.60;99.90
52044;DHT22;38053;53.100;6.078;2024-03-23T02:00:32;4.60;99.90
52044;DHT22;38053;53.100;6.078;2024-03-23T02:02:58;4.60;99.90
52044;DHT22;38053;53.100;6.078;2024-03-23T02:05:23;4.60;99.90
52044;DHT22;38053;53.100;6.078;2024-03-23T02:07:50;4.60;99.90
52044;DHT22;38053;53.100;6.078;2024-03-23T02:10:18;4.60;99.90
52044;DHT22;38053;53.100;6.078;2024-03-23T02:12:50;4.60;99.90
52044;DHT22;38053;53.100;6.078;2024-03-23T02:15:16;4.70;99.90
52044;DHT22;38053;53.100;6.078;2024-03-23T02:17:42;4.70;99.90
52044;DHT22;38053;53.100;6.078;2024-03-23T02:20:08;4.70;99.90
52044;DHT22;38053;53.100;6.078;2024-03-23T02:22:37;4.70;99.90
52044;DHT22;38053;53.100;6.078;2024-03-23T02:25:04;4.70;99.90
52044;DHT22;38053;53.100;6.078;2024-03-23T02:27:30;4.60;99.90
52044;DHT22;38053;53.100;6.078;2024-03-23T02:29:56;4.70;99.90
52044;DHT22;38053;53.100;6.078;2024-03-23T02:32:21;4.70;99.90
52044;DHT22;38053;53.100;6.078;2024-03-23T02:34:52;4.60;99.90
52044;DHT22;38053;53.100;6.078;2024-03-23T02:37:18;4.70;99.90
52044;DHT22;38053;53.100;6.078;2024-03-23T02:39:44;4.70;99.90
52044;DHT22;38053;53.100;6.078;2024-03-23T02:42:09;4.70;99.90
52044;DHT22;38053;53.100;6.078;2024-03-23T02:44:35;4.70;99.90
52044;DHT22;38053;53.100;6.078;2024-03-23T02:47:01;4.70;99.90
52044;DHT22;38053;53.100;6.078;2024-03-23T02:49:29;4.70;99.90
52044;DHT22;38053;53.100;6.078;2024-03-23T02:51:55;4.70;99.90
52044;DHT22;38053;53.100;6.078;2024-03-23T02:54:20;4.70;99.90
52044;DHT22;38053;53.100;6.078;2024-03-23T02:56:46;4.70;99.90
52044;DHT22;38053;53.100;6.078;2024-03-23T02:59:12;4.70;99.90
52044;DHT22;38053;53.100;6.078;2024-03-23T03:01:37;4.60;99.90
52044;DHT22;38053;53.100;6.078;2024-03-23T03:04:03;4.60;99.90
52044;DHT22;38053;53.100;6.078;2024-03-23T03:06:30;4.60;99.90
52044;DHT22;38053;53.100;6.078;2024-03-23T03:09:02;4.50;99.90
52044;DHT22;38053;53.100;6.078;2024-03-23T03:11:28;4.50;99.90
52044;DHT22;38053;53.100;6.078;2024-03-23T03:13:54;4.50;99.90
52044;DHT22;38053;53.100;6.078;2024-03-23T03:16:19;4.40;99.90
52044;DHT22;38053;53.100;6.078;2024-03-23T03:18:51;4.40;99.90
52044;DHT22;38053;53.100;6.078;2024-03-23T03:21:20;4.40;99.90
52044;DHT22;38053;53.100;6.078;2024-03-23T03:23:47;4.30;99.90
52044;DHT22;38053;53.100;6.078;2024-03-23T03:26:16;4.30;99.90
52044;DHT22;38053;53.100;6.078;2024-03-23T03:28:42;4.30;99.90
52044;DHT22;38053;53.100;6.078;2024-03-23T03:31:10;4.20;99.90
52044;DHT22;38053;53.100;6.078;2024-03-23T03:33:36;4.20;99.90
52044;DHT22;38053;53.100;6.078;2024-03-23T03:36:02;4.20;99.90
52044;DHT22;38053;53.100;6.078;2024-03-23T03:38:28;4.20;99.90
52044;DHT22;38053;53.100;6.078;2024-03-23T03:40:53;4.20;99.90
52044;DHT22;38053;53.100;6.078;2024-03-23T03:43:22;4.10;99.90
52044;DHT22;38053;53.100;6.078;2024-03-23T03:45:54;4.10;99.90
52044;DHT22;38053;53.100;6.078;2024-03-23T03:48:20;4.10;99.90
52044;DHT22;38053;53.100;6.078;2024-03-23T03:50:49;4.10;99.90
52044;DHT22;38053;53.100;6.078;2024-03-23T03:53:18;4.00;99.90
52044;DHT22;38053;53.100;6.078;2024-03-23T03:55:44;4.00;99.90
52044;DHT22;38053;53.100;6.078;2024-03-23T03:58:09;4.00;99.90
52044;DHT22;38053;53.100;6.078;2024-03-23T04:00:35;4.00;99.90
52044;DHT22;38053;53.100;6.078;2024-03-23T04:03:01;3.90;99.90
52044;DHT22;38053;53.100;6.078;2024-03-23T04:05:32;3.90;99.90
52044;DHT22;38053;53.100;6.078;2024-03-23T04:07:58;3.90;99.90
52044;DHT22;38053;53.100;6.078;2024-03-23T04:10:24;3.90;99.90
52044;DHT22;38053;53.100;6.078;2024-03-23T04:12:50;3.90;99.90
52044;DHT22;38053;53.100;6.078;2024-03-23T04:15:16;3.80;99.90
52044;DHT22;38053;53.100;6.078;2024-03-23T04:17:42;3.80;99.90
52044;DHT22;38053;53.100;6.078;2024-03-23T04:20:09;3.80;99.90
52044;DHT22;38053;53.100;6.078;2024-03-23T04:22:37;3.80;99.90
52044;DHT22;38053;53.100;6.078;2024-03-23T04:25:03;3.80;99.90
52044;DHT22;38053;53.100;6.078;2024-03-23T04:27:34;3.80;99.90
52044;DHT22;38053;53.100;6.078;2024-03-23T04:30:00;3.80;99.90
52044;DHT22;38053;53.100;6.078;2024-03-23T04:32:27;3.80;99.90
52044;DHT22;38053;53.100;6.078;2024-03-23T04:34:54;3.70;99.90
52044;DHT22;38053;53.100;6.078;2024-03-23T07:48:24;5.30;99.90
52044;DHT22;38053;53.100;6.078;2024-03-23T07:51:07;5.50;99.90
52044;DHT22;38053;53.100;6.078;2024-03-23T07:53:34;5.60;99.90
52044;DHT22;38053;53.100;6.078;2024-03-23T07:56:06;5.50;99.90
52044;DHT22;38053;53.100;6.078;2024-03-23T08:21:51;6.30;99.90
52044;DHT22;38053;53.100;6.078;2024-03-23T08:24:19;6.30;99.90
52044;DHT22;38053;53.100;6.078;2024-03-23T08:27:21;6.50;99.90
52044;DHT22;38053;53.100;6.078;2024-03-23T08:29:50;6.70;99.90
52044;DHT22;38053;53.100;6.078;2024-03-23T08:32:18;6.90;99.90
52044;DHT22;38053;53.100;6.078;2024-03-23T08:38:26;7.30;99.90
52044;DHT22;38053;53.100;6.078;2024-03-23T10:54:30;7.70;99.90
52044;DHT22;38053;53.100;6.078;2024-03-23T10:57:13;7.90;99.90
52044;DHT22;38053;53.100;6.078;2024-03-23T11:02:22;7.80;99.90
52044;DHT22;38053;53.100;6.078;2024-03-23T11:04:47;7.60;99.90
52044;DHT22;38053;53.100;6.078;2024-03-23T11:07:30;7.70;99.90
52044;DHT22;38053;53.100;6.078;2024-03-23T11:09:57;8.10;99.90
52044;DHT22;38053;53.100;6.078;2024-03-23T11:17:30;8.10;99.90
52044;DHT22;38053;53.100;6.078;2024-03-23T11:23:30;7.70;99.90
52044;DHT22;38053;53.100;6.078;2024-03-23T11:25:58;7.70;99.90
52044;DHT22;38053;53.100;6.078;2024-03-23T11:32:31;7.20;99.90
52044;DHT22;38053;53.100;6.078;2024-03-23T11:35:00;6.70;99.90
52044;DHT22;38053;53.100;6.078;2024-03-23T11:37:32;6.40;99.90
52044;DHT22;38053;53.100;6.078;2024-03-23T11:39:58;6.20;99.90
52044;DHT22;38053;53.100;6.078;2024-03-23T11:42:36;6.10;99.90
52044;DHT22;38053;53.100;6.078;2024-03-23T11:45:08;6.10;99.90
52044;DHT22;38053;53.100;6.078;2024-03-23T11:47:34;6.50;99.90
52044;DHT22;38053;53.100;6.078;2024-03-23T11:52:49;7.80;99.90
52044;DHT22;38053;53.100;6.078;2024-03-23T11:55:16;8.10;99.90
52044;DHT22;38053;53.100;6.078;2024-03-23T12:05:22;7.90;99.90
52044;DHT22;38053;53.100;6.078;2024-03-23T12:07:54;7.50;99.90
52044;DHT22;38053;53.100;6.078;2024-03-23T12:16:24;7.00;99.90
52044;DHT22;38053;53.100;6.078;2024-03-23T12:19:05;6.90;99.90
52044;DHT22;38053;53.100;6.078;2024-03-23T12:21:37;6.70;99.90
52044;DHT22;38053;53.100;6.078;2024-03-23T12:24:15;6.40;99.90
52044;DHT22;38053;53.100;6.078;2024-03-23T12:29:53;5.80;99.90
52044;DHT22;38053;53.100;6.078;2024-03-23T12:32:19;5.70;99.90
52044;DHT22;38053;53.100;6.078;2024-03-23T12:34:47;5.50;99.90
52044;DHT22;38053;53.100;6.078;2024-03-23T12:37:20;5.40;99.90
52044;DHT22;38053;53.100;6.078;2024-03-23T12:40:01;5.50;99.90
52044;DHT22;38053;53.100;6.078;2024-03-23T12:42:27;5.60;99.90
52044;DHT22;38053;53.100;6.078;2024-03-23T12:45:06;5.70;99.90
52044;DHT22;38053;53.100;6.078;2024-03-23T12:48:29;5.70;99.90
52044;DHT22;38053;53.100;6.078;2024-03-23T12:51:02;5.70;99.90
52044;DHT22;38053;53.100;6.078;2024-03-23T12:53:30;5.60;99.90
52044;DHT22;38053;53.100;6.078;2024-03-23T12:56:07;5.50;99.90
52044;DHT22;38053;53.100;6.078;2024-03-23T12:58:36;5.60;99.90
52044;DHT22;38053;53.100;6.078;2024-03-23T13:01:05;6.30;99.90
52044;DHT22;38053;53.100;6.078;2024-03-23T13:03:37;7.20;99.90
52044;DHT22;38053;53.100;6.078;2024-03-23T13:12:36;9.00;99.90
52044;DHT22;38053;53.100;6.078;2024-03-23T13:15:08;9.60;99.90
52044;DHT22;38053;53.100;6.078;2024-03-23T13:17:56;9.40;99.90
52044;DHT22;38053;53.100;6.078;2024-03-23T13:20:22;8.70;99.90
52044;DHT22;38053;53.100;6.078;2024-03-23T13:22:48;8.10;99.90
52044;DHT22;38053;53.100;6.078;2024-03-23T13:25:13;7.60;99.90
52044;DHT22;38053;53.100;6.078;2024-03-23T13:27:45;7.20;99.90
52044;DHT22;38053;53.100;6.078;2024-03-23T13:30:20;6.90;99.90
52044;DHT22;38053;53.100;6.078;2024-03-23T13:32:58;7.00;99.90
52044;DHT22;38053;53.100;6.078;2024-03-23T13:35:34;7.20;99.90
52044;DHT22;38053;53.100;6.078;2024-03-23T13:38:21;7.40;99.90
52044;DHT22;38053;53.100;6.078;2024-03-23T13:40:58;7.80;99.90
52044;DHT22;38053;53.100;6.078;2024-03-23T13:43:27;8.10;99.90
52044;DHT22;38053;53.100;6.078;2024-03-23T13:46:02;8.20;99.90
52044;DHT22;38053;53.100;6.078;2024-03-23T13:48:28;8.10;99.90
52044;DHT22;38053;53.100;6.078;2024-03-23T13:51:05;7.80;99.90
52044;DHT22;38053;53.100;6.078;2024-03-23T13:53:37;7.40;99.90
52044;DHT22;38053;53.100;6.078;2024-03-23T13:56:18;7.00;99.90
52044;DHT22;38053;53.100;6.078;2024-03-23T13:58:50;6.90;99.90
52044;DHT22;38053;53.100;6.078;2024-03-23T14:01:25;7.00;99.90
52044;DHT22;38053;53.100;6.078;2024-03-23T14:26:20;9.80;99.90
52044;DHT22;38053;53.100;6.078;2024-03-23T14:28:52;9.60;99.90
52044;DHT22;38053;53.100;6.078;2024-03-23T14:35:06;8.50;99.90
52044;DHT22;38053;53.100;6.078;2024-03-23T14:37:57;7.90;99.90
52044;DHT22;38053;53.100;6.078;2024-03-23T14:40:26;7.50;99.90
52044;DHT22;38053;53.100;6.078;2024-03-23T14:43:09;7.30;99.90
52044;DHT22;38053;53.100;6.078;2024-03-23T14:49:56;7.30;99.90
52044;DHT22;38053;53.100;6.078;2024-03-23T14:52:28;8.10;99.90
52044;DHT22;38053;53.100;6.078;2024-03-23T14:55:03;8.30;99.90
52044;DHT22;38053;53.100;6.078;2024-03-23T14:57:35;8.30;99.90
52044;DHT22;38053;53.100;6.078;2024-03-23T15:00:11;8.30;99.90
52044;DHT22;38053;53.100;6.078;2024-03-23T15:02:38;8.10;99.90
52044;DHT22;38053;53.100;6.078;2024-03-23T15:05:04;8.10;99.90
52044;DHT22;38053;53.100;6.078;2024-03-23T15:07:46;8.30;99.90
52044;DHT22;38053;53.100;6.078;2024-03-23T15:10:15;8.50;99.90
52044;DHT22;38053;53.100;6.078;2024-03-23T15:12:51;8.60;99.90
52044;DHT22;38053;53.100;6.078;2024-03-23T15:15:17;8.90;99.90
52044;DHT22;38053;53.100;6.078;2024-03-23T15:17:42;9.00;99.90
52044;DHT22;38053;53.100;6.078;2024-03-23T15:20:10;8.90;99.90
52044;DHT22;38053;53.100;6.078;2024-03-23T15:22:57;8.60;99.90
52044;DHT22;38053;53.100;6.078;2024-03-23T15:25:29;8.40;99.90
52044;DHT22;38053;53.100;6.078;2024-03-23T15:27:54;8.10;99.90
52044;DHT22;38053;53.100;6.078;2024-03-23T15:30:26;7.90;99.90
52044;DHT22;38053;53.100;6.078;2024-03-23T15:32:52;7.70;99.90
52044;DHT22;38053;53.100;6.078;2024-03-23T15:35:18;7.60;99.90
52044;DHT22;38053;53.100;6.078;2024-03-23T15:37:57;7.70;99.90
52044;DHT22;38053;53.100;6.078;2024-03-23T15:40:26;7.80;99.90
52044;DHT22;38053;53.100;6.078;2024-03-23T15:42:55;7.80;99.90
52044;DHT22;38053;53.100;6.078;2024-03-23T15:45:21;7.70;99.90
52044;DHT22;38053;53.100;6.078;2024-03-23T15:47:56;7.70;99.90
52044;DHT22;38053;53.100;6.078;2024-03-23T15:50:22;7.70;99.90
52044;DHT22;38053;53.100;6.078;2024-03-23T15:53:00;7.90;99.90
52044;DHT22;38053;53.100;6.078;2024-03-23T15:55:35;8.40;99.90
52044;DHT22;38053;53.100;6.078;2024-03-23T15:58:01;8.70;99.90
52044;DHT22;38053;53.100;6.078;2024-03-23T16:00:27;9.30;99.90
52044;DHT22;38053;53.100;6.078;2024-03-23T16:02:55;9.70;99.90
52044;DHT22;38053;53.100;6.078;2024-03-23T16:05:21;10.00;99.90
52044;DHT22;38053;53.100;6.078;2024-03-23T16:07:52;10.30;99.90
52044;DHT22;38053;53.100;6.078;2024-03-23T16:10:29;10.20;99.90
52044;DHT22;38053;53.100;6.078;2024-03-23T16:12:55;9.70;99.90
52044;DHT22;38053;53.100;6.078;2024-03-23T16:15:23;9.10;99.90
52044;DHT22;38053;53.100;6.078;2024-03-23T16:18:01;8.70;99.90
52044;DHT22;38053;53.100;6.078;2024-03-23T16:20:31;8.40;99.90
52044;DHT22;38053;53.100;6.078;2024-03-23T16:23:04;8.20;99.90
52044;DHT22;38053;53.100;6.078;2024-03-23T16:25:47;8.00;99.90
52044;DHT22;38053;53.100;6.078;2024-03-23T16:28:17;7.90;99.90
52044;DHT22;38053;53.100;6.078;2024-03-23T16:34:04;7.70;99.90
52044;DHT22;38053;53.100;6.078;2024-03-23T16:36:32;7.70;99.90
52044;DHT22;38053;53.100;6.078;2024-03-23T16:38:58;7.70;99.90
52044;DHT22;38053;53.100;6.078;2024-03-23T16:41:24;7.70;99.90
52044;DHT22;38053;53.100;6.078;2024-03-23T16:43:49;7.80;99.90
52044;DHT22;38053;53.100;6.078;2024-03-23T16:46:16;7.80;99.90
52044;DHT22;38053;53.100;6.078;2024-03-23T16:48:44;7.70;99.90
52044;DHT22;38053;53.100;6.078;2024-03-23T16:51:21;7.70;99.90
52044;DHT22;38053;53.100;6.078;2024-03-23T16:53:47;7.60;99.90
52044;DHT22;38053;53.100;6.078;2024-03-23T16:56:15;7.70;99.90
52044;DHT22;38053;53.100;6.078;2024-03-23T16:58:41;7.60;99.90
52044;DHT22;38053;53.100;6.078;2024-03-23T17:01:12;7.50;99.90
52044;DHT22;38053;53.100;6.078;2024-03-23T17:03:52;7.30;99.90
52044;DHT22;38053;53.100;6.078;2024-03-23T17:06:18;7.20;99.90
52044;DHT22;38053;53.100;6.078;2024-03-23T17:08:45;7.10;99.90
52044;DHT22;38053;53.100;6.078;2024-03-23T17:11:12;7.10;99.90
52044;DHT22;38053;53.100;6.078;2024-03-23T17:13:38;7.10;99.90
52044;DHT22;38053;53.100;6.078;2024-03-23T17:16:04;7.20;99.90
52044;DHT22;38053;53.100;6.078;2024-03-23T17:18:31;7.20;99.90
52044;DHT22;38053;53.100;6.078;2024-03-23T17:21:02;7.20;99.90
52044;DHT22;38053;53.100;6.078;2024-03-23T17:23:30;7.20;99.90
52044;DHT22;38053;53.100;6.078;2024-03-23T17:26:01;7.10;99.90
52044;DHT22;38053;53.100;6.078;2024-03-23T17:28:27;7.00;99.90
52044;DHT22;38053;53.100;6.078;2024-03-23T17:30:53;7.00;99.90
52044;DHT22;38053;53.100;6.078;2024-03-23T17:33:18;6.90;99.90
52044;DHT22;38053;53.100;6.078;2024-03-23T17:35:45;6.80;99.90
52044;DHT22;38053;53.100;6.078;2024-03-23T17:38:12;6.70;99.90
52044;DHT22;38053;53.100;6.078;2024-03-23T17:40:38;6.70;99.90
52044;DHT22;38053;53.100;6.078;2024-03-23T17:43:04;6.60;99.90
52044;DHT22;38053;53.100;6.078;2024-03-23T17:48:38;6.40;99.90
52044;DHT22;38053;53.100;6.078;2024-03-23T17:51:04;6.40;99.90
52044;DHT22;38053;53.100;6.078;2024-03-23T17:53:36;6.40;99.90
52044;DHT22;38053;53.100;6.078;2024-03-23T17:56:06;6.30;99.90
52044;DHT22;38053;53.100;6.078;2024-03-23T17:58:32;6.30;99.90
52044;DHT22;38053;53.100;6.078;2024-03-23T18:01:05;6.30;99.90
52044;DHT22;38053;53.100;6.078;2024-03-23T18:03:44;6.30;99.90
52044;DHT22;38053;53.100;6.078;2024-03-23T18:06:10;6.20;99.90
52044;DHT22;38053;53.100;6.078;2024-03-23T18:08:35;6.20;99.90
52044;DHT22;38053;53.100;6.078;2024-03-23T18:11:06;6.10;99.90
52044;DHT22;38053;53.100;6.078;2024-03-23T18:13:35;6.10;99.90
52044;DHT22;38053;53.100;6.078;2024-03-23T18:19:33;6.00;99.90
52044;DHT22;38053;53.100;6.078;2024-03-23T18:21:58;5.90;99.90
52044;DHT22;38053;53.100;6.078;2024-03-23T18:24:27;5.80;99.90
52044;DHT22;38053;53.100;6.078;2024-03-23T18:26:53;5.80;99.90
52044;DHT22;38053;53.100;6.078;2024-03-23T18:29:20;5.70;99.90
52044;DHT22;38053;53.100;6.078;2024-03-23T18:31:46;5.70;99.90
52044;DHT22;38053;53.100;6.078;2024-03-23T18:34:16;5.60;99.90
52044;DHT22;38053;53.100;6.078;2024-03-23T18:36:42;5.50;99.90
52044;DHT22;38053;53.100;6.078;2024-03-23T18:39:08;5.50;99.90
52044;DHT22;38053;53.100;6.078;2024-03-23T18:41:33;5.50;99.90
52044;DHT22;38053;53.100;6.078;2024-03-23T18:43:59;5.50;99.90
52044;DHT22;38053;53.100;6.078;2024-03-23T18:46:26;5.60;99.90
52044;DHT22;38053;53.100;6.078;2024-03-23T18:48:55;5.60;99.90
52044;DHT22;38053;53.100;6.078;2024-03-23T18:51:21;5.70;99.90
52044;DHT22;38053;53.100;6.078;2024-03-23T18:53:47;5.70;99.90
52044;DHT22;38053;53.100;6.078;2024-03-23T18:56:13;5.70;99.90
52044;DHT22;38053;53.100;6.078;2024-03-23T18:58:38;5.60;99.90
52044;DHT22;38053;53.100;6.078;2024-03-23T19:01:10;5.60;99.90
52044;DHT22;38053;53.100;6.078;2024-03-23T19:03:36;5.50;99.90
52044;DHT22;38053;53.100;6.078;2024-03-23T19:06:03;5.50;99.90
52044;DHT22;38053;53.100;6.078;2024-03-23T19:08:41;5.40;99.90
52044;DHT22;38053;53.100;6.078;2024-03-23T19:11:10;5.40;99.90
52044;DHT22;38053;53.100;6.078;2024-03-23T19:37:37;5.00;99.90
52044;DHT22;38053;53.100;6.078;2024-03-23T19:40:06;4.90;99.90
52044;DHT22;38053;53.100;6.078;2024-03-23T19:42:32;4.90;99.90
52044;DHT22;38053;53.100;6.078;2024-03-23T19:45:00;4.90;99.90
52044;DHT22;38053;53.100;6.078;2024-03-23T19:47:29;4.90;99.90
52044;DHT22;38053;53.100;6.078;2024-03-23T19:49:57;4.90;99.90
52044;DHT22;38053;53.100;6.078;2024-03-23T19:52:23;4.90;99.90
52044;DHT22;38053;53.100;6.078;2024-03-23T19:54:55;4.90;99.90
52044;DHT22;38053;53.100;6.078;2024-03-23T19:57:21;5.00;99.90
52044;DHT22;38053;53.100;6.078;2024-03-23T19:59:47;5.00;99.90
52044;DHT22;38053;53.100;6.078;2024-03-23T20:02:19;5.00;99.90
52044;DHT22;38053;53.100;6.078;2024-03-23T20:04:47;5.00;99.90
52044;DHT22;38053;53.100;6.078;2024-03-23T20:07:13;5.00;99.90
52044;DHT22;38053;53.100;6.078;2024-03-23T20:09:39;5.00;99.90
52044;DHT22;38053;53.100;6.078;2024-03-23T20:15:26;5.00;99.90
52044;DHT22;38053;53.100;6.078;2024-03-23T20:17:52;5.00;99.90
52044;DHT22;38053;53.100;6.078;2024-03-23T20:20:17;5.00;99.90
52044;DHT22;38053;53.100;6.078;2024-03-23T20:22:43;5.00;99.90
52044;DHT22;38053;53.100;6.078;2024-03-23T20:25:09;5.00;99.90
52044;DHT22;38053;53.100;6.078;2024-03-23T20:27:35;5.10;99.90
52044;DHT22;38053;53.100;6.078;2024-03-23T20:30:01;5.10;99.90
52044;DHT22;38053;53.100;6.078;2024-03-23T20:32:26;5.10;99.90
52044;DHT22;38053;53.100;6.078;2024-03-23T20:34:55;5.10;99.90
52044;DHT22;38053;53.100;6.078;2024-03-23T20:37:20;5.20;99.90
52044;DHT22;38053;53.100;6.078;2024-03-23T20:39:46;5.20;99.90
52044;DHT22;38053;53.100;6.078;2024-03-23T20:42:12;5.20;99.90
52044;DHT22;38053;53.100;6.078;2024-03-23T20:44:38;5.30;99.90
52044;DHT22;38053;53.100;6.078;2024-03-23T20:47:04;5.30;99.90
52044;DHT22;38053;53.100;6.078;2024-03-23T20:49:42;5.40;99.90
52044;DHT22;38053;53.100;6.078;2024-03-23T20:52:07;5.50;99.90
52044;DHT22;38053;53.100;6.078;2024-03-23T20:54:33;5.50;99.90
52044;DHT22;38053;53.100;6.078;2024-03-23T20:57:09;5.50;99.90
52044;DHT22;38053;53.100;6.078;2024-03-23T20:59:34;5.50;99.90
52044;DHT22;38053;53.100;6.078;2024-03-23T21:02:00;5.50;99.90
52044;DHT22;38053;53.100;6.078;2024-03-23T21:04:26;5.50;99.90
52044;DHT22;38053;53.100;6.078;2024-03-23T21:06:51;5.50;99.90
52044;DHT22;38053;53.100;6.078;2024-03-23T21:09:18;5.60;99.90
52044;DHT22;38053;53.100;6.078;2024-03-23T21:11:46;5.60;99.90
52044;DHT22;38053;53.100;6.078;2024-03-23T21:14:12;5.60;99.90
52044;DHT22;38053;53.100;6.078;2024-03-23T21:16:37;5.60;99.90
52044;DHT22;38053;53.100;6.078;2024-03-23T21:19:03;5.60;99.90
52044;DHT22;38053;53.100;6.078;2024-03-23T21:21:29;5.60;99.90
52044;DHT22;38053;53.100;6.078;2024-03-23T21:23:58;5.60;99.90
52044;DHT22;38053;53.100;6.078;2024-03-23T21:26:23;5.50;99.90
52044;DHT22;38053;53.100;6.078;2024-03-23T21:28:52;5.60;99.90
52044;DHT22;38053;53.100;6.078;2024-03-23T21:31:49;5.60;99.90
52044;DHT22;38053;53.100;6.078;2024-03-23T21:34:15;5.60;99.90
52044;DHT22;38053;53.100;6.078;2024-03-23T21:36:41;5.60;99.90
52044;DHT22;38053;53.100;6.078;2024-03-23T21:39:06;5.70;99.90
52044;DHT22;38053;53.100;6.078;2024-03-23T21:41:33;5.70;99.90
52044;DHT22;38053;53.100;6.078;2024-03-23T21:44:18;5.70;99.90
52044;DHT22;38053;53.100;6.078;2024-03-23T21:46:44;5.70;99.90
52044;DHT22;38053;53.100;6.078;2024-03-23T21:49:10;5.80;99.90
52044;DHT22;38053;53.100;6.078;2024-03-23T21:51:36;5.80;99.90
52044;DHT22;38053;53.100;6.078;2024-03-23T21:54:02;5.80;99.90
52044;DHT22;38053;53.100;6.078;2024-03-23T21:56:29;5.80;99.90
52044;DHT22;38053;53.100;6.078;2024-03-23T21:58:58;5.80;99.90
52044;DHT22;38053;53.100;6.078;2024-03-23T22:01:25;5.80;99.90
52044;DHT22;38053;53.100;6.078;2024-03-23T22:03:51;5.70;99.90
52044;DHT22;38053;53.100;6.078;2024-03-23T22:06:28;5.70;99.90
52044;DHT22;38053;53.100;6.078;2024-03-23T22:08:54;5.70;99.90
52044;DHT22;38053;53.100;6.078;2024-03-23T22:11:20;5.70;99.90
52044;DHT22;38053;53.100;6.078;2024-03-23T22:13:48;5.70;99.90
52044;DHT22;38053;53.100;6.078;2024-03-23T22:16:15;5.70;99.90
52044;DHT22;38053;53.100;6.078;2024-03-23T22:18:40;5.80;99.90
52044;DHT22;38053;53.100;6.078;2024-03-23T22:21:06;5.90;99.90
52044;DHT22;38053;53.100;6.078;2024-03-23T22:23:33;5.90;99.90
52044;DHT22;38053;53.100;6.078;2024-03-23T22:25:59;6.00;99.90
52044;DHT22;38053;53.100;6.078;2024-03-23T22:28:33;6.00;99.90
52044;DHT22;38053;53.100;6.078;2024-03-23T22:31:03;6.00;99.90
52044;DHT22;38053;53.100;6.078;2024-03-23T22:33:30;5.90;99.90
52044;DHT22;38053;53.100;6.078;2024-03-23T22:35:57;5.90;99.90
52044;DHT22;38053;53.100;6.078;2024-03-23T22:38:27;5.80;99.90
52044;DHT22;38053;53.100;6.078;2024-03-23T22:40:56;5.70;99.90
52044;DHT22;38053;53.100;6.078;2024-03-23T22:43:23;5.60;99.90
52044;DHT22;38053;53.100;6.078;2024-03-23T22:45:55;5.60;99.90
52044;DHT22;38053;53.100;6.078;2024-03-23T22:48:22;5.50;99.90
52044;DHT22;38053;53.100;6.078;2024-03-23T22:50:49;5.50;99.90
52044;DHT22;38053;53.100;6.078;2024-03-23T22:53:24;5.50;99.90
52044;DHT22;38053;53.100;6.078;2024-03-23T22:55:54;5.40;99.90
52044;DHT22;38053;53.100;6.078;2024-03-23T22:58:21;5.40;99.90
52044;DHT22;38053;53.100;6.078;2024-03-23T23:00:48;5.40;99.90
52044;DHT22;38053;53.100;6.078;2024-03-23T23:03:22;5.30;99.90
52044;DHT22;38053;53.100;6.078;2024-03-23T23:06:05;5.30;99.90
52044;DHT22;38053;53.100;6.078;2024-03-23T23:08:31;5.20;99.90
52044;DHT22;38053;53.100;6.078;2024-03-23T23:11:05;5.20;99.90
52044;DHT22;38053;53.100;6.078;2024-03-23T23:13:33;5.20;99.90
52044;DHT22;38053;53.100;6.078;2024-03-23T23:15:59;5.20;99.90
52044;DHT22;38053;53.100;6.078;2024-03-23T23:18:25;5.20;99.90
52044;DHT22;38053;53.100;6.078;2024-03-23T23:20:54;5.20;99.90
52044;DHT22;38053;53.100;6.078;2024-03-23T23:23:20;5.20;99.90
52044;DHT22;38053;53.100;6.078;2024-03-23T23:25:58;5.20;99.90
52044;DHT22;38053;53.100;6.078;2024-03-23T23:36:10;5.30;99.90
52044;DHT22;38053;53.100;6.078;2024-03-23T23:38:38;5.30;99.90
52044;DHT22;38053;53.100;6.078;2024-03-23T23:41:04;5.20;99.90
52044;DHT22;38053;53.100;6.078;2024-03-23T23:43:58;5.20;99.90
52044;DHT22;38053;53.100;6.078;2024-03-23T23:46:26;5.20;99.90
52044;DHT22;38053;53.100;6.078;2024-03-23T23:48:58;5.20;99.90
52044;DHT22;38053;53.100;6.078;2024-03-23T23:51:26;5.20;99.90
52044;DHT22;38053;53.100;6.078;2024-03-23T23:53:52;5.20;99.90
52044;DHT22;38053;53.100;6.078;2024-03-23T23:56:18;5.20;99.90
52044;DHT22;38053;53.100;6.078;2024-03-23T23:58:50;5.20;99.90
